Atlanta, Idaho
Current Conditions -  °F | °C
As of 12:47 PM on Friday 24 Oct 2014 (Local Time) from KSUN Reporting Station
Broken Clouds Broken Clouds  
Wind Chill: 55°   Ceiling: 9000
Heat Index: 55°   Visibility: 10mi
Dew Point: 43°   Wind: 0mph
Humidity: 63%   Direction: NA
Pressure: 30.18"   Gusts: NA
Location:  43.8°N, 115.13°W
Report Text: KSUN 241847Z 00000KT 10SM BKN090 13/06 A3018
Loading
Personal Weather Stations






























Interactive Weather Map
Tropical Storm Tracking
New forecast layout! Learn more

10-Day Weather Forecast

Advertisements
Track Severe Weather on mobile